Time;durP1;ratioP1;P1;durP2;ratioP2;P2;SDS_P1;SDS_P2;PMS_P1;PMS_P2;Temp;Humidity;BMP_temperature;BMP_pressure;BME280_temperature;BME280_humidity;BME280_pressure;Samples;Min_cycle;Max_cycle;Signal;HPM_P1;HPM_P2
2021/08/12 00:00:30;;;;;;;;;;;;;;;-144.99;92.82;52362.50;5003807;28;19985;-60
2021/08/12 00:02:56;;;;;;;;;;;;;;;-144.99;93.00;52358.41;5015982;28;19950;-60
2021/08/12 00:05:22;;;;;;;;;;;;;;;-144.99;93.03;52374.72;5011864;28;19955;-60
2021/08/12 00:10:22;;;;;;;;;;;;;;;-144.99;93.35;52342.09;5020858;28;19962;-74
2021/08/12 00:12:50;;;;;;;;;;;;;;;-144.99;93.36;52350.25;5028227;28;19976;-73
2021/08/12 00:15:16;;;;;;;;;;;;;;;-144.99;93.22;52338.03;5035451;28;20028;-74
2021/08/12 00:17:42;;;;;;;;;;;;;;;-144.99;93.58;52366.56;5032536;28;20382;-73
2021/08/12 00:20:09;;;;;;;;;;;;;;;-144.99;93.51;52342.09;5014811;28;20380;-74
2021/08/12 00:22:37;;;;;;;;;;;;;;;-144.99;93.79;52386.94;5023777;28;19938;-73
2021/08/12 00:25:03;;;;;;;;;;;;;;;-144.99;93.82;52354.34;5041891;28;19955;-74
2021/08/12 00:27:29;;;;;;;;;;;;;;;-144.99;93.54;52350.25;5031239;28;20018;-74
2021/08/12 00:29:57;;;;;;;;;;;;;;;-144.99;94.01;52407.31;5040961;28;19991;-73
2021/08/12 00:32:23;;;;;;;;;;;;;;;-144.99;93.95;52364.53;5022595;28;20434;-74
2021/08/12 00:34:49;;;;;;;;;;;;;;;-144.99;94.25;52370.63;5021961;28;19959;-74
2021/08/12 00:37:16;;;;;;;;;;;;;;;-144.99;94.46;52333.94;5026428;28;19950;-74
2021/08/12 00:39:42;;;;;;;;;;;;;;;-144.99;94.90;52342.09;5038059;28;19964;-73
2021/08/12 00:42:09;;;;;;;;;;;;;;;-144.99;94.91;52364.53;5032003;28;20583;-73
2021/08/12 00:44:35;;;;;;;;;;;;;;;-144.99;95.16;52358.41;5016567;28;19960;-73
2021/08/12 00:47:03;;;;;;;;;;;;;;;-144.99;94.95;52354.34;5013945;28;20436;-74
2021/08/12 00:49:29;;;;;;;;;;;;;;;-144.99;94.90;52362.50;5015959;28;19990;-73
2021/08/12 00:51:55;;;;;;;;;;;;;;;-144.99;94.90;52342.09;5019318;28;19972;-73
2021/08/12 00:54:21;;;;;;;;;;;;;;;-144.99;94.91;52360.44;5016563;28;20317;-74
2021/08/12 00:56:48;;;;;;;;;;;;;;;-144.99;95.13;52386.94;5023684;28;19994;-78
2021/08/12 00:59:14;;;;;;;;;;;;;;;-144.99;95.16;52370.63;5019101;28;19964;-77
2021/08/12 01:01:41;;;;;;;;;;;;;;;-144.99;95.20;52350.25;5015801;28;19960;-77
2021/08/12 01:04:09;;;;;;;;;;;;;;;-144.99;95.60;52382.88;5020364;28;19946;-77
2021/08/12 01:06:40;;;;;;;;;;;;;;;-144.99;95.42;52415.47;5023859;28;20607;-77
2021/08/12 01:09:11;;;;;;;;;;;;;;;-144.99;95.45;52395.09;5014544;28;19968;-77
2021/08/12 01:11:38;;;;;;;;;;;;;;;-144.99;95.40;52366.56;5024283;28;19958;-77
2021/08/12 01:14:16;;;;;;;;;;;;;;;-144.99;95.38;52374.72;5026457;28;19974;-78
2021/08/12 01:16:45;;;;;;;;;;;;;;;-144.99;95.42;52382.88;5026093;28;19972;-78
2021/08/12 01:19:31;;;;;;;;;;;;;;;-144.99;95.40;52386.94;5020202;28;20024;-77
2021/08/12 01:22:00;;;;;;;;;;;;;;;-144.99;95.63;52386.94;5019755;28;20422;-78
2021/08/12 01:24:29;;;;;;;;;;;;;;;-144.99;95.70;52374.72;5022367;28;19948;-77
2021/08/12 01:26:58;;;;;;;;;;;;;;;-144.99;96.16;52360.44;5028964;28;20341;-78
2021/08/12 01:29:33;;;;;;;;;;;;;;;-144.99;96.23;52350.25;5019803;28;20049;-78
2021/08/12 01:32:02;;;;;;;;;;;;;;;-144.99;96.40;52395.09;5025032;28;20040;-78
2021/08/12 01:34:31;;;;;;;;;;;;;;;-144.99;96.67;52342.09;5028196;28;19940;-76
2021/08/12 01:37:01;;;;;;;;;;;;;;;-144.99;96.87;52395.09;5025667;28;19952;-77
2021/08/12 01:39:27;;;;;;;;;;;;;;;-144.99;96.89;52374.72;5020903;28;19970;-78
2021/08/12 01:41:54;;;;;;;;;;;;;;;-144.99;96.92;52374.72;5029029;28;20394;-77
2021/08/12 01:44:23;;;;;;;;;;;;;;;-144.99;97.29;52395.09;5019690;28;21357;-78
2021/08/12 01:46:50;;;;;;;;;;;;;;;-144.99;97.34;52366.56;5019359;28;19988;-76
2021/08/12 01:49:16;;;;;;;;;;;;;;;-144.99;97.82;52354.34;5020776;28;19958;-75
2021/08/12 01:51:43;;;;;;;;;;;;;;;-144.99;97.88;52354.34;5016869;28;20059;-75
2021/08/12 01:54:12;;;;;;;;;;;;;;;-144.99;98.90;52393.06;5021519;28;20491;-75
2021/08/12 01:56:38;;;;;;;;;;;;;;;-144.99;98.56;52374.72;5016994;28;20411;-75
2021/08/12 01:59:05;;;;;;;;;;;;;;;-144.99;98.31;52338.03;5026342;28;19962;-76
2021/08/12 02:01:32;;;;;;;;;;;;;;;-144.99;98.35;52338.03;5023264;28;19945;-76
2021/08/12 02:03:59;;;;;;;;;;;;;;;-144.99;98.63;52368.59;5016749;28;19929;-75
2021/08/12 02:06:33;;;;;;;;;;;;;;;-144.99;98.94;52325.81;5022482;28;19946;-75
2021/08/12 02:08:59;;;;;;;;;;;;;;;-144.99;98.76;52391.03;5014640;28;19969;-75
2021/08/12 02:11:27;;;;;;;;;;;;;;;-144.99;98.80;52366.56;5019053;28;19966;-75
2021/08/12 02:13:53;;;;;;;;;;;;;;;-144.99;98.92;52342.09;5016594;28;20470;-75
2021/08/12 02:16:19;;;;;;;;;;;;;;;-144.99;99.01;52370.63;5018160;28;19944;-75
2021/08/12 02:18:45;;;;;;;;;;;;;;;-144.99;99.06;52368.59;5017665;28;19976;-73
2021/08/12 02:21:13;;;;;;;;;;;;;;;-144.99;98.75;52374.72;5014461;28;19957;-75
2021/08/12 02:23:43;;;;;;;;;;;;;;;-144.99;99.05;52329.88;5013027;28;20440;-75
2021/08/12 02:26:11;;;;;;;;;;;;;;;-144.99;99.33;52366.56;5017359;28;19972;-75
2021/08/12 02:28:40;;;;;;;;;;;;;;;-144.99;99.33;52380.84;5018681;28;19977;-75
2021/08/12 02:31:07;;;;;;;;;;;;;;;-144.99;99.28;52395.09;5021817;28;19981;-74
2021/08/12 02:33:34;;;;;;;;;;;;;;;-144.99;99.58;52368.59;5018331;28;19947;-74
2021/08/12 02:36:01;;;;;;;;;;;;;;;-144.99;99.76;52346.19;5020817;28;20236;-74
2021/08/12 02:38:28;;;;;;;;;;;;;;;-144.99;99.64;52376.75;5020057;28;20488;-74
2021/08/12 02:40:54;;;;;;;;;;;;;;;-144.99;99.80;52382.88;5017168;28;20356;-75
2021/08/12 02:43:22;;;;;;;;;;;;;;;-144.99;99.86;52391.03;5020893;28;20412;-75
2021/08/12 02:45:50;;;;;;;;;;;;;;;-144.99;99.93;52386.94;5020833;28;19956;-76
2021/08/12 02:48:16;;;;;;;;;;;;;;;-144.99;99.87;52395.09;5015352;28;19961;-75
2021/08/12 02:50:44;;;;;;;;;;;;;;;-144.99;100.00;52350.25;5008591;28;20038;-74
2021/08/12 02:53:11;;;;;;;;;;;;;;;-144.99;100.00;52391.03;5017677;28;19950;-76
2021/08/12 02:55:37;;;;;;;;;;;;;;;-144.99;100.00;52370.63;5021497;28;19943;-76
2021/08/12 02:58:04;;;;;;;;;;;;;;;-144.99;100.00;52393.06;5018877;28;20297;-76
2021/08/12 03:00:31;;;;;;;;;;;;;;;-144.99;100.00;52376.75;5025570;28;19937;-76
2021/08/12 03:03:00;;;;;;;;;;;;;;;-144.99;100.00;52391.03;5012887;28;20441;-76
2021/08/12 03:05:27;;;;;;;;;;;;;;;-144.99;100.00;52370.63;5020549;28;20130;-76
2021/08/12 03:07:53;;;;;;;;;;;;;;;-144.99;100.00;52366.56;5013956;28;19960;-76
2021/08/12 03:10:20;;;;;;;;;;;;;;;-144.99;100.00;52386.94;5019756;28;19946;-76
2021/08/12 03:12:47;;;;;;;;;;;;;;;-144.99;100.00;52386.94;5013141;28;20431;-74
2021/08/12 03:15:14;;;;;;;;;;;;;;;-144.99;100.00;52370.63;5016869;28;20050;-75
2021/08/12 03:17:41;;;;;;;;;;;;;;;-144.99;100.00;52382.88;5017017;28;19955;-76
2021/08/12 03:20:09;;;;;;;;;;;;;;;-144.99;100.00;52362.50;5014186;28;19962;-76
2021/08/12 03:22:35;;;;;;;;;;;;;;;-144.99;100.00;52366.56;5014663;28;19987;-75
2021/08/12 03:25:02;;;;;;;;;;;;;;;-144.99;100.00;52423.63;5019173;28;20428;-75
2021/08/12 03:27:28;;;;;;;;;;;;;;;-144.99;100.00;52370.63;5015934;28;20389;-75
2021/08/12 03:29:54;;;;;;;;;;;;;;;-144.99;100.00;52386.94;5018358;28;19964;-75
2021/08/12 03:32:21;;;;;;;;;;;;;;;-144.99;100.00;52350.25;5011500;28;19985;-75
2021/08/12 03:34:47;;;;;;;;;;;;;;;-144.99;100.00;52386.94;5016596;28;20496;-75
2021/08/12 03:37:15;;;;;;;;;;;;;;;-144.99;100.00;52374.72;5013631;28;19947;-76
2021/08/12 03:39:42;;;;;;;;;;;;;;;-144.99;100.00;52386.94;5014763;28;19960;-76
2021/08/12 03:42:09;;;;;;;;;;;;;;;-144.99;100.00;52407.31;5010664;28;19954;-75
2021/08/12 03:44:35;;;;;;;;;;;;;;;-144.99;100.00;52382.88;5015967;28;19960;-74
2021/08/12 03:47:01;;;;;;;;;;;;;;;-144.99;100.00;52362.50;5019823;28;19957;-74
2021/08/12 03:49:28;;;;;;;;;;;;;;;-144.99;100.00;52370.63;5017892;28;20062;-74
2021/08/12 03:51:54;;;;;;;;;;;;;;;-144.99;100.00;52340.06;5020314;28;19966;-75
2021/08/12 03:54:22;;;;;;;;;;;;;;;-144.99;100.00;52348.22;5016225;28;20406;-74
2021/08/12 03:56:48;;;;;;;;;;;;;;;-144.99;100.00;52386.94;5016238;28;20428;-73
2021/08/12 03:59:14;;;;;;;;;;;;;;;-144.99;100.00;52354.34;5020311;28;19961;-74
2021/08/12 04:01:41;;;;;;;;;;;;;;;-144.99;100.00;52391.03;5022867;28;20407;-74
2021/08/12 04:04:08;;;;;;;;;;;;;;;-144.99;100.00;52362.50;5022200;28;19949;-74
2021/08/12 04:06:34;;;;;;;;;;;;;;;-144.99;100.00;52350.25;5033167;28;19950;-75
2021/08/12 04:09:00;;;;;;;;;;;;;;;-144.99;100.00;52338.03;5027155;28;20465;-75
2021/08/12 04:11:28;;;;;;;;;;;;;;;-144.99;100.00;52378.78;5019625;28;19978;-74
2021/08/12 04:13:54;;;;;;;;;;;;;;;-144.99;100.00;52378.78;5022135;28;19954;-75
2021/08/12 04:16:20;;;;;;;;;;;;;;;-144.99;100.00;52360.44;5017056;28;20328;-74
2021/08/12 04:18:47;;;;;;;;;;;;;;;-144.99;100.00;52370.63;5017055;28;19967;-75
2021/08/12 04:21:13;;;;;;;;;;;;;;;-144.99;100.00;52382.88;5017677;28;19992;-75
2021/08/12 04:23:39;;;;;;;;;;;;;;;-144.99;100.00;52391.03;5017140;28;19956;-76
2021/08/12 04:26:06;;;;;;;;;;;;;;;-144.99;100.00;52366.56;5018547;28;20032;-75
2021/08/12 04:28:33;;;;;;;;;;;;;;;-144.99;100.00;52354.34;5018116;28;20853;-76
2021/08/12 04:31:00;;;;;;;;;;;;;;;-144.99;100.00;52358.41;5028223;28;19979;-76
2021/08/12 04:33:26;;;;;;;;;;;;;;;-144.99;100.00;52362.50;5030721;28;20496;-76
2021/08/12 04:35:52;;;;;;;;;;;;;;;-144.99;100.00;52397.13;5033071;28;20024;-76
2021/08/12 04:38:18;;;;;;;;;;;;;;;-144.99;100.00;52407.31;5038268;28;19982;-76
2021/08/12 04:40:45;;;;;;;;;;;;;;;-144.99;100.00;52370.63;5023306;28;19956;-75
2021/08/12 04:43:11;;;;;;;;;;;;;;;-144.99;100.00;52362.50;5032609;28;19925;-75
2021/08/12 04:45:39;;;;;;;;;;;;;;;-144.99;99.90;52360.44;5027297;28;20440;-75
2021/08/12 04:48:05;;;;;;;;;;;;;;;-144.99;99.62;52338.03;5032475;28;20415;-75
2021/08/12 04:50:34;;;;;;;;;;;;;;;-144.99;99.29;52362.50;5025731;28;19970;-75
2021/08/12 04:53:00;;;;;;;;;;;;;;;-144.99;99.06;52321.72;5031279;28;20054;-75
2021/08/12 04:55:26;;;;;;;;;;;;;;;-144.99;98.91;52350.25;5027321;28;20308;-75
2021/08/12 04:57:53;;;;;;;;;;;;;;;-144.99;98.39;52329.88;5032553;28;20407;-76
2021/08/12 05:00:19;;;;;;;;;;;;;;;-144.99;98.42;52350.25;5025462;28;19967;-75
2021/08/12 05:02:47;;;;;;;;;;;;;;;-144.99;98.14;52362.50;5028290;28;19933;-75
2021/08/12 05:05:13;;;;;;;;;;;;;;;-144.99;98.07;52350.25;5029524;28;20333;-75
2021/08/12 05:07:40;;;;;;;;;;;;;;;-144.99;98.07;52350.25;5019039;28;19960;-76
2021/08/12 05:10:06;;;;;;;;;;;;;;;-144.99;97.99;52372.69;5018084;28;19960;-76
2021/08/12 05:12:33;;;;;;;;;;;;;;;-144.99;97.87;52350.25;5023385;28;20505;-75
2021/08/12 05:14:59;;;;;;;;;;;;;;;-144.99;97.58;52358.41;5019618;28;19980;-75
2021/08/12 05:17:25;;;;;;;;;;;;;;;-144.99;97.49;52378.78;5023596;28;19972;-75
2021/08/12 05:19:53;;;;;;;;;;;;;;;-144.99;97.37;52350.25;5020462;28;19990;-74
2021/08/12 05:22:20;;;;;;;;;;;;;;;-144.99;97.15;52370.63;5019912;28;19972;-75
2021/08/12 05:24:47;;;;;;;;;;;;;;;-144.99;97.10;52362.50;5022162;28;19972;-75
2021/08/12 05:27:13;;;;;;;;;;;;;;;-144.99;96.89;52342.09;5014931;28;20196;-75
2021/08/12 05:29:39;;;;;;;;;;;;;;;-144.99;96.89;52331.91;5018908;28;19995;-74
2021/08/12 05:32:06;;;;;;;;;;;;;;;-144.99;97.04;52342.09;5018556;28;19986;-74
2021/08/12 05:34:32;;;;;;;;;;;;;;;-144.99;96.83;52338.03;5015349;28;19987;-74
2021/08/12 05:37:00;;;;;;;;;;;;;;;-144.99;96.61;52307.47;5018501;28;19974;-73
2021/08/12 05:39:26;;;;;;;;;;;;;;;-144.99;96.50;52366.56;5018681;28;19987;-74
2021/08/12 05:41:53;;;;;;;;;;;;;;;-144.99;96.06;52342.09;5021621;28;19970;-76
2021/08/12 05:44:19;;;;;;;;;;;;;;;-144.99;95.77;52364.53;5017000;28;19962;-74
2021/08/12 05:46:45;;;;;;;;;;;;;;;-144.99;95.57;52317.66;5017595;28;20444;-74
2021/08/12 05:49:12;;;;;;;;;;;;;;;-144.99;95.47;52325.81;5018853;28;19991;-74
2021/08/12 05:51:38;;;;;;;;;;;;;;;-144.99;95.16;52350.25;5015244;28;20477;-76
2021/08/12 05:54:06;;;;;;;;;;;;;;;-144.99;94.71;52317.66;5018111;28;19966;-75
2021/08/12 05:56:32;;;;;;;;;;;;;;;-144.99;94.41;52342.09;5018750;28;20016;-75
2021/08/12 05:58:59;;;;;;;;;;;;;;;-144.99;93.36;52309.50;5017891;28;20343;-75
2021/08/12 06:01:25;;;;;;;;;;;;;;;-144.99;92.94;52321.72;5014851;28;19973;-75
2021/08/12 06:03:51;;;;;;;;;;;;;;;-144.99;92.51;52342.09;5016447;28;19980;-75
2021/08/12 06:06:18;;;;;;;;;;;;;;;-144.99;91.79;52313.56;5020114;28;20285;-75
2021/08/12 06:08:44;;;;;;;;;;;;;;;-144.99;91.37;52293.19;5023766;28;19972;-76
2021/08/12 06:11:12;;;;;;;;;;;;;;;-144.99;90.86;52305.41;5065783;22;20018;-77
2021/08/12 06:13:39;;;;;;;;;;;;;;;-144.99;89.89;52333.94;5047429;28;19969;-77
2021/08/12 06:16:06;;;;;;;;;;;;;;;-144.99;89.11;52313.56;5034836;28;19952;-77
2021/08/12 06:18:33;;;;;;;;;;;;;;;-144.99;88.40;52338.03;5037116;28;19951;-78
2021/08/12 06:20:59;;;;;;;;;;;;;;;-144.99;88.00;52305.41;5035934;28;19976;-76
2021/08/12 06:23:26;;;;;;;;;;;;;;;-144.99;88.19;52338.03;5035637;28;19945;-78
2021/08/12 06:25:52;;;;;;;;;;;;;;;-144.99;87.73;52264.66;5033137;28;19972;-78
2021/08/12 06:28:19;;;;;;;;;;;;;;;-144.99;87.64;52289.13;5034818;28;19959;-78
2021/08/12 06:30:46;;;;;;;;;;;;;;;-144.99;86.69;52301.34;5037876;28;19974;-78
2021/08/12 06:33:12;;;;;;;;;;;;;;;-144.99;85.81;52236.13;5032511;28;19986;-79
2021/08/12 06:35:38;;;;;;;;;;;;;;;-144.99;84.78;52301.34;5034848;28;19951;-79
2021/08/12 06:38:07;;;;;;;;;;;;;;;-144.99;84.68;52301.34;5035732;28;19958;-78
2021/08/12 06:40:33;;;;;;;;;;;;;;;-144.99;84.34;52289.13;5038112;28;19994;-79
2021/08/12 06:42:59;;;;;;;;;;;;;;;-144.99;83.10;52268.72;5030768;28;19982;-78
2021/08/12 06:45:27;;;;;;;;;;;;;;;-144.99;82.30;52305.41;5037510;28;19947;-78
2021/08/12 06:47:54;;;;;;;;;;;;;;;-144.99;80.96;52287.06;5040268;28;20405;-78
2021/08/12 06:50:21;;;;;;;;;;;;;;;-144.99;79.45;52262.63;5031903;28;20470;-79
2021/08/12 06:52:48;;;;;;;;;;;;;;;-144.99;78.93;52260.56;5036087;28;20002;-77
2021/08/12 06:55:14;;;;;;;;;;;;;;;-144.99;78.64;52268.72;5042303;28;19974;-78
2021/08/12 06:57:41;;;;;;;;;;;;;;;-144.99;78.12;52287.06;5044854;28;19972;-80
2021/08/12 07:00:08;;;;;;;;;;;;;;;-144.99;77.85;52280.97;5038767;28;19987;-78
2021/08/12 07:02:36;;;;;;;;;;;;;;;-144.99;77.63;52285.03;5035534;28;20547;-74
2021/08/12 07:05:02;;;;;;;;;;;;;;;-144.99;77.26;52289.13;5036676;28;19954;-72
2021/08/12 07:07:28;;;;;;;;;;;;;;;-144.99;76.40;52285.03;5033272;28;19968;-72
2021/08/12 07:09:55;;;;;;;;;;;;;;;-144.99;75.95;52207.59;5028778;28;19982;-72
2021/08/12 07:12:21;;;;;;;;;;;;;;;-144.99;75.74;52240.19;5036548;28;19999;-72
2021/08/12 07:14:47;;;;;;;;;;;;;;;-144.99;74.53;52248.34;5034532;28;20372;-73
2021/08/12 07:17:14;;;;;;;;;;;;;;;-144.99;74.23;52256.50;5033676;28;20383;-73
2021/08/12 07:19:41;;;;;;;;;;;;;;;-144.99;73.63;52248.34;5039642;28;20419;-73
2021/08/12 07:22:08;;;;;;;;;;;;;;;-144.99;72.25;52238.16;5035235;28;19982;-73
2021/08/12 07:24:34;;;;;;;;;;;;;;;-144.99;71.96;52223.88;5038868;28;19925;-71
2021/08/12 07:27:00;;;;;;;;;;;;;;;-144.99;72.35;52211.66;5033022;28;19968;-73
2021/08/12 07:29:27;;;;;;;;;;;;;;;-144.99;72.14;52276.88;5034187;28;19985;-72
2021/08/12 07:31:53;;;;;;;;;;;;;;;-144.99;72.12;52278.91;5042661;28;19960;-73
2021/08/12 07:34:19;;;;;;;;;;;;;;;-144.99;71.78;52278.91;5038052;28;19971;-73
2021/08/12 07:36:47;;;;;;;;;;;;;;;-144.99;71.66;52256.50;5044244;28;19980;-73
2021/08/12 07:39:14;;;;;;;;;;;;;;;-144.99;70.89;52240.19;5036929;28;19942;-73
2021/08/12 07:41:40;;;;;;;;;;;;;;;-144.99;70.71;52266.69;5037295;28;20056;-71
2021/08/12 07:44:07;;;;;;;;;;;;;;;-144.99;71.08;52248.34;5042870;28;19942;-73
2021/08/12 07:46:33;;;;;;;;;;;;;;;-144.99;71.30;52219.81;5037297;28;20334;-71
2021/08/12 07:49:01;;;;;;;;;;;;;;;-144.99;71.04;52244.28;5037018;28;19938;-73
2021/08/12 07:51:27;;;;;;;;;;;;;;;-144.99;69.52;52219.81;5040272;28;19977;-77
2021/08/12 07:53:55;;;;;;;;;;;;;;;-144.99;68.92;52223.88;5035247;28;19960;-78
2021/08/12 07:56:22;;;;;;;;;;;;;;;-144.99;68.16;52240.19;5034274;28;19945;-77
2021/08/12 07:58:49;;;;;;;;;;;;;;;-144.99;67.93;52199.44;5045892;28;20316;-77
2021/08/12 08:01:15;;;;;;;;;;;;;;;-144.99;67.31;52232.03;5038979;28;19998;-79
2021/08/12 08:03:42;;;;;;;;;;;;;;;-144.99;67.39;52260.56;5041134;28;19944;-78
2021/08/12 08:06:08;;;;;;;;;;;;;;;-144.99;66.86;52252.44;5038999;28;19951;-79
2021/08/12 08:08:34;;;;;;;;;;;;;;;-144.99;66.77;52236.13;5039222;28;19942;-79
2021/08/12 08:11:02;;;;;;;;;;;;;;;-144.99;66.43;52252.44;5041654;28;20550;-79
2021/08/12 08:13:29;;;;;;;;;;;;;;;-144.99;65.67;52223.88;5042007;28;19985;-79
2021/08/12 08:15:55;;;;;;;;;;;;;;;-144.99;64.57;52268.72;5035138;28;19958;-80
2021/08/12 08:18:21;;;;;;;;;;;;;;;-144.99;64.85;52252.44;5049701;28;19953;-81
2021/08/12 08:20:47;;;;;;;;;;;;;;;-144.99;64.20;52272.81;5051704;28;19967;-81
2021/08/12 08:23:14;;;;;;;;;;;;;;;-144.99;63.60;52242.22;5049126;28;19958;-79
2021/08/12 08:25:40;;;;;;;;;;;;;;;-144.99;63.98;52209.63;5053871;28;20367;-80
2021/08/12 08:28:08;;;;;;;;;;;;;;;-144.99;62.87;52225.94;5052790;28;19941;-78
2021/08/12 08:30:35;;;;;;;;;;;;;;;-144.99;63.22;52195.34;5052954;28;19964;-79
2021/08/12 08:33:02;;;;;;;;;;;;;;;-144.99;62.20;52215.75;5053192;28;19960;-78
2021/08/12 08:35:29;;;;;;;;;;;;;;;-144.99;62.85;52256.50;5053589;28;20436;-78
2021/08/12 08:37:56;;;;;;;;;;;;;;;-144.99;61.88;52209.63;5053217;28;19962;-81
2021/08/12 08:40:23;;;;;;;;;;;;;;;-144.99;60.82;52185.16;5055467;28;19959;-81
2021/08/12 08:42:49;;;;;;;;;;;;;;;-144.99;60.69;52221.84;5036354;28;19936;-81
2021/08/12 08:45:21;;;;;;;;;;;;;;;-144.99;61.32;52207.59;5033732;28;20323;-82
2021/08/12 08:47:50;;;;;;;;;;;;;;;-144.99;60.81;52189.25;5041103;28;20426;-81
2021/08/12 08:50:18;;;;;;;;;;;;;;;-144.99;59.47;52185.16;5054862;28;19925;-82
2021/08/12 08:52:45;;;;;;;;;;;;;;;-144.99;59.65;52162.75;5034789;28;19937;-81
2021/08/12 08:55:14;;;;;;;;;;;;;;;-144.99;58.61;52211.66;5040286;28;19940;-81
2021/08/12 08:57:40;;;;;;;;;;;;;;;-144.99;58.05;52183.13;5055954;28;19949;-82
2021/08/12 09:00:09;;;;;;;;;;;;;;;-144.99;58.05;52203.50;5039874;28;20257;-81
2021/08/12 09:02:36;;;;;;;;;;;;;;;-144.99;59.02;52191.28;5045820;28;19953;-80
2021/08/12 09:05:03;;;;;;;;;;;;;;;-144.99;57.98;52199.44;5049624;28;19924;-80
2021/08/12 09:07:29;;;;;;;;;;;;;;;-144.99;57.95;52174.97;5053687;28;19951;-80
2021/08/12 09:09:59;;;;;;;;;;;;;;;-144.99;58.03;52195.34;5051817;28;19985;-79
2021/08/12 09:12:26;;;;;;;;;;;;;;;-144.99;58.20;52199.44;5038457;28;20334;-80
2021/08/12 09:15:01;;;;;;;;;;;;;;;-144.99;57.53;52181.09;5052677;28;19980;-82
2021/08/12 09:17:27;;;;;;;;;;;;;;;-144.99;57.63;52219.81;5054623;28;19971;-82
2021/08/12 09:20:03;;;;;;;;;;;;;;;-144.99;56.84;52199.44;5053278;28;19985;-81
2021/08/12 09:22:31;;;;;;;;;;;;;;;-144.99;56.49;52162.75;5051571;28;19978;-78
2021/08/12 09:24:57;;;;;;;;;;;;;;;-144.99;56.11;52183.13;5051762;28;19953;-79
2021/08/12 09:27:24;;;;;;;;;;;;;;;-144.99;55.80;52215.75;5051516;28;20452;-83
2021/08/12 09:30:08;;;;;;;;;;;;;;;-144.99;55.24;52179.06;5051261;28;20265;-79
2021/08/12 09:32:43;;;;;;;;;;;;;;;-144.99;54.25;52156.63;5050551;28;19950;-80
2021/08/12 09:35:11;;;;;;;;;;;;;;;-144.99;55.13;52203.50;5051012;28;20084;-79
2021/08/12 09:37:37;;;;;;;;;;;;;;;-144.99;54.83;52170.91;5045820;28;19975;-82
2021/08/12 09:40:04;;;;;;;;;;;;;;;-144.99;54.60;52197.41;5050065;28;20527;-79
2021/08/12 09:42:51;;;;;;;;;;;;;;;-144.99;54.92;52211.66;5053010;28;19991;-81
2021/08/12 09:45:22;;;;;;;;;;;;;;;-144.99;55.98;52199.44;5053274;28;19956;-81
2021/08/12 09:47:48;;;;;;;;;;;;;;;-144.99;55.45;52134.22;5052295;28;20071;-79
2021/08/12 09:50:23;;;;;;;;;;;;;;;-144.99;54.52;52146.44;5053128;28;19985;-82
2021/08/12 09:52:49;;;;;;;;;;;;;;;-144.99;54.54;52136.25;5052861;28;20281;-79
2021/08/12 09:55:18;;;;;;;;;;;;;;;-144.99;53.33;52097.53;5052487;28;19946;-79
2021/08/12 09:57:45;;;;;;;;;;;;;;;-144.99;53.13;52158.66;5052102;28;19961;-81
2021/08/12 10:00:13;;;;;;;;;;;;;;;-144.99;52.22;52146.44;5053239;28;19965;-83
2021/08/12 10:02:39;;;;;;;;;;;;;;;-144.99;51.54;52134.22;5053261;28;20009;-82
2021/08/12 10:05:08;;;;;;;;;;;;;;;-144.99;51.12;52121.97;5048002;28;19924;-83
2021/08/12 10:07:39;;;;;;;;;;;;;;;-144.99;50.22;52134.22;5052246;28;20412;-81
2021/08/12 10:10:10;;;;;;;;;;;;;;;-144.99;49.54;52093.44;5052449;28;19984;-82
2021/08/12 10:12:42;;;;;;;;;;;;;;;-144.99;49.82;52109.75;5041616;28;19936;-80
2021/08/12 10:15:09;;;;;;;;;;;;;;;-144.99;49.90;52109.75;5053546;28;19928;-81
2021/08/12 10:17:36;;;;;;;;;;;;;;;-144.99;49.18;52089.38;5053674;28;19938;-80
2021/08/12 10:20:02;;;;;;;;;;;;;;;-144.99;48.58;52121.97;5053431;28;19931;-82
2021/08/12 10:22:29;;;;;;;;;;;;;;;-144.99;49.41;52077.16;5053992;28;19936;-80
2021/08/12 10:24:57;;;;;;;;;;;;;;;-144.99;49.20;52109.75;5054348;28;19929;-80
2021/08/12 10:27:23;;;;;;;;;;;;;;;-144.99;48.70;52089.38;5052811;28;19932;-80
2021/08/12 10:29:50;;;;;;;;;;;;;;;-144.99;48.30;52064.91;5047925;28;20418;-80
2021/08/12 10:32:16;;;;;;;;;;;;;;;-144.99;48.12;52079.19;5048332;28;19924;-80
2021/08/12 10:34:43;;;;;;;;;;;;;;;-144.99;47.39;52081.22;5051419;28;19948;-80
2021/08/12 10:37:10;;;;;;;;;;;;;;;-144.99;47.64;52146.44;5047620;28;19955;-82
2021/08/12 10:39:37;;;;;;;;;;;;;;;-144.99;47.88;52089.38;5049786;28;20004;-80
2021/08/12 10:42:06;;;;;;;;;;;;;;;-144.99;47.66;52073.06;5039978;28;20487;-80
2021/08/12 10:44:33;;;;;;;;;;;;;;;-144.99;48.37;52077.16;5053972;28;20011;-80
2021/08/12 10:46:59;;;;;;;;;;;;;;;-144.99;47.15;52060.84;5052615;28;19932;-79
2021/08/12 10:49:26;;;;;;;;;;;;;;;-144.99;46.60;52020.09;5049412;28;19925;-81
2021/08/12 10:51:59;;;;;;;;;;;;;;;-144.99;46.55;52032.31;5051636;28;19925;-80
2021/08/12 10:54:26;;;;;;;;;;;;;;;-144.99;46.72;51991.56;5051968;28;19924;-81
2021/08/12 10:57:12;;;;;;;;;;;;;;;-144.99;46.51;52024.16;5052730;28;19932;-79
2021/08/12 10:59:40;;;;;;;;;;;;;;;-144.99;45.92;51987.47;5050311;28;19929;-79
2021/08/12 11:02:21;;;;;;;;;;;;;;;-144.99;46.40;52020.09;5052327;28;19936;-82
2021/08/12 11:04:51;;;;;;;;;;;;;;;-144.99;45.81;51977.28;5047024;28;19925;-82
2021/08/12 11:07:32;;;;;;;;;;;;;;;-144.99;46.70;51999.69;5051040;28;19925;-82
2021/08/12 11:10:00;;;;;;;;;;;;;;;-144.99;46.70;52044.53;5056940;28;19925;-80
2021/08/12 11:12:48;;;;;;;;;;;;;;;-144.99;45.97;52107.72;5043671;28;20360;-80
2021/08/12 11:15:16;;;;;;;;;;;;;;;-144.99;46.02;52126.06;5055833;28;20384;-81
2021/08/12 11:17:52;;;;;;;;;;;;;;;-144.99;46.83;52054.72;5056172;28;19932;-81
2021/08/12 11:20:32;;;;;;;;;;;;;;;-144.99;46.56;51958.94;5055894;28;19925;-81
2021/08/12 11:23:18;;;;;;;;;;;;;;;-144.99;45.98;51981.38;5055545;28;20300;-81
2021/08/12 11:25:54;;;;;;;;;;;;;;;-144.99;44.92;51930.41;5056085;28;19925;-81
2021/08/12 11:28:35;;;;;;;;;;;;;;;-144.99;44.81;51922.25;5056322;28;19925;-81
2021/08/12 11:31:03;;;;;;;;;;;;;;;-144.99;43.50;51944.69;5052814;28;19940;-83
2021/08/12 11:33:30;;;;;;;;;;;;;;;-144.99;43.49;51950.78;5055892;28;20449;-81
2021/08/12 11:36:24;;;;;;;;;;;;;;;-144.99;44.13;51920.22;5054392;28;19928;-80
2021/08/12 11:38:53;;;;;;;;;;;;;;;-144.99;43.35;51914.09;5023538;28;19924;-81
2021/08/12 11:41:19;;;;;;;;;;;;;;;-144.99;43.63;51983.41;5055709;28;20414;-81
2021/08/12 11:43:47;;;;;;;;;;;;;;;-144.99;43.00;51926.34;5036768;28;19925;-81
2021/08/12 11:46:15;;;;;;;;;;;;;;;-144.99;42.95;51958.94;5035289;28;19937;-81
2021/08/12 11:48:41;;;;;;;;;;;;;;;-144.99;43.50;51926.34;5035835;28;19948;-80
2021/08/12 11:51:08;;;;;;;;;;;;;;;-144.99;42.12;51934.50;5035335;28;19948;-82
2021/08/12 11:53:45;;;;;;;;;;;;;;;-144.99;42.45;51926.34;5034582;28;19925;-83
2021/08/12 11:56:13;;;;;;;;;;;;;;;-144.99;42.78;52042.50;5026436;28;19934;-81
2021/08/12 11:58:42;;;;;;;;;;;;;;;-144.99;41.89;51893.72;5015202;28;21463;-79
2021/08/12 12:01:12;;;;;;;;;;;;;;;-144.99;41.67;51905.97;5013922;28;19932;-81
2021/08/12 12:03:40;;;;;;;;;;;;;;;-144.99;42.43;52032.31;5034868;28;19925;-81
2021/08/12 12:06:06;;;;;;;;;;;;;;;-144.99;41.43;52056.78;5033736;28;19952;-82
2021/08/12 12:08:33;;;;;;;;;;;;;;;-144.99;42.22;52016.00;5033989;28;19925;-81
2021/08/12 12:11:10;;;;;;;;;;;;;;;-144.99;42.60;52097.53;5033963;28;20349;-80
2021/08/12 12:13:36;;;;;;;;;;;;;;;-144.99;43.64;51956.91;5041495;22;19933;-78
2021/08/12 12:16:07;;;;;;;;;;;;;;;-144.99;43.45;52085.31;5013975;28;19933;-78
2021/08/12 12:18:35;;;;;;;;;;;;;;;-144.99;43.41;52093.44;5014092;28;20320;-77
2021/08/12 12:21:04;;;;;;;;;;;;;;;-144.99;43.09;51975.25;5018974;28;20380;-79
2021/08/12 12:23:30;;;;;;;;;;;;;;;-144.99;43.26;51979.31;5018641;28;19926;-77
2021/08/12 12:25:57;;;;;;;;;;;;;;;-144.99;42.04;51979.31;5014984;28;19926;-78
2021/08/12 12:28:24;;;;;;;;;;;;;;;-144.99;43.00;52024.16;5015766;28;19925;-79
2021/08/12 12:30:50;;;;;;;;;;;;;;;-144.99;43.07;51971.16;5009137;28;19937;-78